sensor_id;sensor_type;location;lat;lon;timestamp;P1;durP1;ratioP1;P2;durP2;ratioP2
16033;SDS011;8121;51.418;6.998;2023-06-14T00:08:59;9.67;;;4.83;;
16033;SDS011;8121;51.418;6.998;2023-06-14T00:19:02;6.10;;;5.00;;
16033;SDS011;8121;51.418;6.998;2023-06-14T00:29:04;19.17;;;4.70;;
16033;SDS011;8121;51.418;6.998;2023-06-14T00:39:07;6.40;;;4.63;;
16033;SDS011;8121;51.418;6.998;2023-06-14T00:49:09;7.70;;;5.50;;
16033;SDS011;8121;51.418;6.998;2023-06-14T00:59:13;15.33;;;4.33;;
16033;SDS011;8121;51.418;6.998;2023-06-14T01:09:17;8.63;;;4.90;;
16033;SDS011;8121;51.418;6.998;2023-06-14T01:19:23;4.50;;;3.50;;
16033;SDS011;8121;51.418;6.998;2023-06-14T01:29:27;6.70;;;3.53;;
16033;SDS011;8121;51.418;6.998;2023-06-14T01:39:32;11.13;;;4.30;;
16033;SDS011;8121;51.418;6.998;2023-06-14T01:49:37;6.87;;;3.60;;
16033;SDS011;8121;51.418;6.998;2023-06-14T01:59:39;6.37;;;3.77;;
16033;SDS011;8121;51.418;6.998;2023-06-14T02:09:42;8.40;;;4.53;;
16033;SDS011;8121;51.418;6.998;2023-06-14T02:19:44;6.60;;;4.00;;
16033;SDS011;8121;51.418;6.998;2023-06-14T02:29:47;10.30;;;4.30;;
16033;SDS011;8121;51.418;6.998;2023-06-14T02:39:48;8.67;;;3.83;;
16033;SDS011;8121;51.418;6.998;2023-06-14T03:00:48;8.23;;;3.93;;
16033;SDS011;8121;51.418;6.998;2023-06-14T03:10:52;4.80;;;4.20;;
16033;SDS011;8121;51.418;6.998;2023-06-14T03:31:57;4.30;;;3.73;;
16033;SDS011;8121;51.418;6.998;2023-06-14T03:42:00;4.47;;;3.70;;
16033;SDS011;8121;51.418;6.998;2023-06-14T03:52:03;5.40;;;4.00;;
16033;SDS011;8121;51.418;6.998;2023-06-14T04:02:06;7.50;;;3.57;;
16033;SDS011;8121;51.418;6.998;2023-06-14T04:12:11;12.03;;;4.50;;
16033;SDS011;8121;51.418;6.998;2023-06-14T04:22:12;10.00;;;5.00;;
16033;SDS011;8121;51.418;6.998;2023-06-14T04:32:15;9.40;;;3.77;;
16033;SDS011;8121;51.418;6.998;2023-06-14T04:42:18;5.63;;;3.60;;
16033;SDS011;8121;51.418;6.998;2023-06-14T04:52:22;6.70;;;3.80;;
16033;SDS011;8121;51.418;6.998;2023-06-14T05:02:26;4.13;;;3.73;;
16033;SDS011;8121;51.418;6.998;2023-06-14T05:12:32;6.43;;;3.10;;
16033;SDS011;8121;51.418;6.998;2023-06-14T05:22:34;6.00;;;3.07;;
16033;SDS011;8121;51.418;6.998;2023-06-14T05:32:37;4.87;;;3.40;;
16033;SDS011;8121;51.418;6.998;2023-06-14T05:42:39;8.20;;;3.10;;
16033;SDS011;8121;51.418;6.998;2023-06-14T05:52:41;4.03;;;3.03;;
16033;SDS011;8121;51.418;6.998;2023-06-14T06:02:44;4.43;;;3.30;;
16033;SDS011;8121;51.418;6.998;2023-06-14T06:12:47;4.80;;;2.60;;
16033;SDS011;8121;51.418;6.998;2023-06-14T06:22:49;5.20;;;2.37;;
16033;SDS011;8121;51.418;6.998;2023-06-14T06:32:52;9.17;;;2.67;;
16033;SDS011;8121;51.418;6.998;2023-06-14T06:42:55;9.13;;;2.40;;
16033;SDS011;8121;51.418;6.998;2023-06-14T06:52:58;3.20;;;2.40;;
16033;SDS011;8121;51.418;6.998;2023-06-14T07:03:00;1.80;;;1.70;;
16033;SDS011;8121;51.418;6.998;2023-06-14T07:13:05;3.37;;;1.77;;
16033;SDS011;8121;51.418;6.998;2023-06-14T07:23:06;2.90;;;1.77;;
16033;SDS011;8121;51.418;6.998;2023-06-14T07:33:09;2.03;;;1.83;;
16033;SDS011;8121;51.418;6.998;2023-06-14T07:43:12;5.53;;;1.60;;
16033;SDS011;8121;51.418;6.998;2023-06-14T07:53:15;1.90;;;1.30;;
16033;SDS011;8121;51.418;6.998;2023-06-14T08:03:17;1.90;;;1.80;;
16033;SDS011;8121;51.418;6.998;2023-06-14T08:13:21;3.43;;;1.70;;
16033;SDS011;8121;51.418;6.998;2023-06-14T08:23:22;1.23;;;1.07;;
16033;SDS011;8121;51.418;6.998;2023-06-14T08:33:25;1.37;;;1.27;;
16033;SDS011;8121;51.418;6.998;2023-06-14T08:43:27;1.67;;;1.17;;
16033;SDS011;8121;51.418;6.998;2023-06-14T08:53:29;1.63;;;1.30;;
16033;SDS011;8121;51.418;6.998;2023-06-14T09:03:32;1.80;;;1.70;;
16033;SDS011;8121;51.418;6.998;2023-06-14T09:13:34;2.90;;;1.80;;
16033;SDS011;8121;51.418;6.998;2023-06-14T09:23:36;1.83;;;1.73;;
16033;SDS011;8121;51.418;6.998;2023-06-14T09:33:39;1.43;;;1.33;;
16033;SDS011;8121;51.418;6.998;2023-06-14T10:04:09;1.57;;;1.43;;
16033;SDS011;8121;51.418;6.998;2023-06-14T10:14:15;1.60;;;1.50;;
16033;SDS011;8121;51.418;6.998;2023-06-14T10:24:20;5.90;;;1.53;;
16033;SDS011;8121;51.418;6.998;2023-06-14T10:34:40;1.30;;;1.00;;
16033;SDS011;8121;51.418;6.998;2023-06-14T10:44:54;1.13;;;1.00;;
16033;SDS011;8121;51.418;6.998;2023-06-14T10:55:06;16.73;;;1.70;;
16033;SDS011;8121;51.418;6.998;2023-06-14T11:05:25;2.10;;;0.80;;
16033;SDS011;8121;51.418;6.998;2023-06-14T11:25:51;11.07;;;1.20;;
16033;SDS011;8121;51.418;6.998;2023-06-14T11:36:07;6.00;;;1.10;;
16033;SDS011;8121;51.418;6.998;2023-06-14T11:46:31;1.50;;;0.73;;
16033;SDS011;8121;51.418;6.998;2023-06-14T11:56:32;0.70;;;0.70;;
16033;SDS011;8121;51.418;6.998;2023-06-14T12:06:45;2.80;;;1.37;;
16033;SDS011;8121;51.418;6.998;2023-06-14T12:17:08;0.87;;;0.87;;
16033;SDS011;8121;51.418;6.998;2023-06-14T12:27:12;1.50;;;1.40;;
16033;SDS011;8121;51.418;6.998;2023-06-14T12:37:15;2.70;;;0.80;;
16033;SDS011;8121;51.418;6.998;2023-06-14T12:47:18;1.87;;;1.77;;
16033;SDS011;8121;51.418;6.998;2023-06-14T12:57:20;2.07;;;1.33;;
16033;SDS011;8121;51.418;6.998;2023-06-14T13:07:23;1.80;;;1.70;;
16033;SDS011;8121;51.418;6.998;2023-06-14T13:17:24;1.77;;;1.67;;
16033;SDS011;8121;51.418;6.998;2023-06-14T13:27:28;2.13;;;1.80;;
16033;SDS011;8121;51.418;6.998;2023-06-14T13:37:29;1.90;;;1.80;;
16033;SDS011;8121;51.418;6.998;2023-06-14T13:47:35;1.50;;;1.40;;
16033;SDS011;8121;51.418;6.998;2023-06-14T13:57:36;1.60;;;1.50;;
16033;SDS011;8121;51.418;6.998;2023-06-14T14:07:40;1.93;;;1.53;;
16033;SDS011;8121;51.418;6.998;2023-06-14T14:17:42;6.23;;;2.30;;
16033;SDS011;8121;51.418;6.998;2023-06-14T14:27:45;2.60;;;1.97;;
16033;SDS011;8121;51.418;6.998;2023-06-14T14:37:47;1.70;;;1.60;;
16033;SDS011;8121;51.418;6.998;2023-06-14T14:47:50;1.70;;;1.60;;
16033;SDS011;8121;51.418;6.998;2023-06-14T14:57:52;1.30;;;1.20;;
16033;SDS011;8121;51.418;6.998;2023-06-14T15:07:56;3.63;;;1.43;;
16033;SDS011;8121;51.418;6.998;2023-06-14T15:17:58;2.23;;;2.10;;
16033;SDS011;8121;51.418;6.998;2023-06-14T15:28:01;5.00;;;1.63;;
16033;SDS011;8121;51.418;6.998;2023-06-14T15:38:06;6.70;;;1.50;;
16033;SDS011;8121;51.418;6.998;2023-06-14T15:48:09;1.60;;;1.17;;
16033;SDS011;8121;51.418;6.998;2023-06-14T15:58:11;5.63;;;1.93;;
16033;SDS011;8121;51.418;6.998;2023-06-14T16:08:14;2.30;;;2.20;;
16033;SDS011;8121;51.418;6.998;2023-06-14T16:18:16;1.93;;;1.83;;
16033;SDS011;8121;51.418;6.998;2023-06-14T16:28:19;1.47;;;1.37;;
16033;SDS011;8121;51.418;6.998;2023-06-14T16:38:20;4.80;;;1.90;;
16033;SDS011;8121;51.418;6.998;2023-06-14T16:48:24;1.67;;;1.57;;
16033;SDS011;8121;51.418;6.998;2023-06-14T16:58:26;1.40;;;1.30;;
16033;SDS011;8121;51.418;6.998;2023-06-14T17:08:30;1.63;;;1.53;;
16033;SDS011;8121;51.418;6.998;2023-06-14T17:18:33;4.60;;;1.37;;
16033;SDS011;8121;51.418;6.998;2023-06-14T17:28:36;1.27;;;1.17;;
16033;SDS011;8121;51.418;6.998;2023-06-14T17:38:39;1.00;;;0.90;;
16033;SDS011;8121;51.418;6.998;2023-06-14T17:48:42;3.63;;;1.80;;
16033;SDS011;8121;51.418;6.998;2023-06-14T17:58:43;1.10;;;1.10;;
16033;SDS011;8121;51.418;6.998;2023-06-14T18:08:47;3.30;;;2.20;;
16033;SDS011;8121;51.418;6.998;2023-06-14T18:18:51;3.17;;;1.80;;
16033;SDS011;8121;51.418;6.998;2023-06-14T18:28:55;1.90;;;1.73;;
16033;SDS011;8121;51.418;6.998;2023-06-14T18:38:58;3.30;;;1.30;;
16033;SDS011;8121;51.418;6.998;2023-06-14T18:49:01;1.50;;;1.40;;
16033;SDS011;8121;51.418;6.998;2023-06-14T18:59:03;4.33;;;1.77;;
16033;SDS011;8121;51.418;6.998;2023-06-14T19:09:06;2.80;;;2.10;;
16033;SDS011;8121;51.418;6.998;2023-06-14T19:19:08;1.47;;;1.30;;
16033;SDS011;8121;51.418;6.998;2023-06-14T19:29:11;1.20;;;1.10;;
16033;SDS011;8121;51.418;6.998;2023-06-14T19:39:13;1.50;;;1.40;;
16033;SDS011;8121;51.418;6.998;2023-06-14T19:49:16;0.90;;;0.90;;
16033;SDS011;8121;51.418;6.998;2023-06-14T19:59:18;1.40;;;1.30;;
16033;SDS011;8121;51.418;6.998;2023-06-14T20:09:22;1.60;;;1.20;;
16033;SDS011;8121;51.418;6.998;2023-06-14T20:19:23;1.10;;;1.00;;
16033;SDS011;8121;51.418;6.998;2023-06-14T20:29:27;0.93;;;0.83;;
16033;SDS011;8121;51.418;6.998;2023-06-14T20:39:31;1.77;;;0.80;;
16033;SDS011;8121;51.418;6.998;2023-06-14T20:49:35;1.73;;;0.80;;
16033;SDS011;8121;51.418;6.998;2023-06-14T20:59:37;2.20;;;1.33;;
16033;SDS011;8121;51.418;6.998;2023-06-14T21:09:41;1.17;;;1.07;;
16033;SDS011;8121;51.418;6.998;2023-06-14T21:19:44;2.83;;;1.85;;
16033;SDS011;8121;51.418;6.998;2023-06-14T21:29:47;2.23;;;1.67;;
16033;SDS011;8121;51.418;6.998;2023-06-14T21:39:50;1.93;;;1.60;;
16033;SDS011;8121;51.418;6.998;2023-06-14T21:49:53;1.97;;;1.83;;
16033;SDS011;8121;51.418;6.998;2023-06-14T21:59:55;6.00;;;1.90;;
16033;SDS011;8121;51.418;6.998;2023-06-14T22:10:00;3.30;;;2.60;;
16033;SDS011;8121;51.418;6.998;2023-06-14T22:20:17;2.40;;;2.20;;
16033;SDS011;8121;51.418;6.998;2023-06-14T22:30:20;1.97;;;1.70;;
16033;SDS011;8121;51.418;6.998;2023-06-14T22:40:21;4.17;;;2.43;;
16033;SDS011;8121;51.418;6.998;2023-06-14T22:50:25;2.70;;;2.40;;
16033;SDS011;8121;51.418;6.998;2023-06-14T23:00:26;2.73;;;2.53;;
16033;SDS011;8121;51.418;6.998;2023-06-14T23:10:29;2.23;;;2.13;;
16033;SDS011;8121;51.418;6.998;2023-06-14T23:20:31;7.73;;;2.70;;
16033;SDS011;8121;51.418;6.998;2023-06-14T23:30:34;1.87;;;1.77;;
16033;SDS011;8121;51.418;6.998;2023-06-14T23:40:37;4.50;;;2.57;;
16033;SDS011;8121;51.418;6.998;2023-06-14T23:50:40;2.40;;;2.20;;
